createdAt,value
2019-03-04T00:02:17.227Z,9.45
2019-03-04T00:05:07.522Z,9.05
2019-03-04T00:07:57.090Z,9.48
2019-03-04T00:10:46.132Z,10.18
2019-03-04T00:13:36.870Z,10.85
2019-03-04T00:16:25.790Z,9.53
2019-03-04T00:19:15.096Z,9.75
2019-03-04T00:22:04.478Z,11.12
2019-03-04T00:24:53.733Z,9.93
2019-03-04T00:27:42.915Z,9.78
2019-03-04T00:30:31.873Z,10.70
2019-03-04T00:33:20.326Z,9.90
2019-03-04T00:36:09.381Z,10.45
2019-03-04T00:38:58.472Z,10.00
2019-03-04T00:41:47.503Z,8.80
2019-03-04T00:44:37.189Z,10.20
2019-03-04T00:47:26.018Z,9.60
2019-03-04T00:50:17.956Z,10.25
2019-03-04T00:53:06.427Z,9.43
2019-03-04T00:55:55.912Z,9.08
2019-03-04T00:58:45.173Z,9.55
2019-03-04T01:01:34.749Z,9.65
2019-03-04T01:04:23.970Z,9.20
2019-03-04T01:07:12.645Z,9.00
2019-03-04T01:10:01.442Z,9.23
2019-03-04T01:12:50.578Z,9.60
2019-03-04T01:15:39.869Z,9.58
2019-03-04T01:18:28.803Z,9.55
2019-03-04T01:21:18.403Z,9.00
2019-03-04T01:24:07.110Z,9.90
2019-03-04T01:26:56.327Z,9.78
2019-03-04T01:29:45.501Z,7.87
2019-03-04T01:32:34.767Z,9.00
2019-03-04T01:35:23.842Z,9.58
2019-03-04T01:38:13.508Z,9.65
2019-03-04T01:41:02.378Z,8.95
2019-03-04T01:43:51.640Z,15.25
2019-03-04T01:46:40.767Z,51.13
2019-03-04T01:49:30.587Z,8.85
2019-03-04T01:52:20.082Z,8.60
2019-03-04T01:55:12.669Z,9.60
2019-03-04T01:58:02.022Z,8.13
2019-03-04T02:00:51.637Z,8.23
2019-03-04T02:03:40.829Z,7.92
2019-03-04T02:06:29.808Z,7.20
2019-03-04T02:09:19.671Z,7.20
2019-03-04T02:12:08.923Z,7.78
2019-03-04T02:14:58.317Z,8.68
2019-03-04T02:17:47.714Z,7.35
2019-03-04T02:20:37.060Z,6.95
2019-03-04T02:23:26.254Z,6.83
2019-03-04T02:26:17.747Z,6.45
2019-03-04T02:29:06.568Z,7.17
2019-03-04T02:31:55.975Z,6.47
2019-03-04T02:34:45.261Z,7.03
2019-03-04T02:37:34.207Z,6.43
2019-03-04T02:40:23.686Z,6.58
2019-03-04T02:43:13.017Z,6.72
2019-03-04T02:46:02.019Z,6.78
2019-03-04T02:48:51.582Z,6.72
2019-03-04T02:51:41.059Z,6.37
2019-03-04T02:54:30.104Z,6.33
2019-03-04T02:57:19.878Z,6.00
2019-03-04T03:00:18.311Z,6.10
2019-03-04T03:03:07.667Z,5.83
2019-03-04T03:05:56.856Z,5.35
2019-03-04T03:08:45.613Z,5.80
2019-03-04T03:11:35.168Z,5.62
2019-03-04T03:14:24.338Z,6.15
2019-03-04T03:17:13.300Z,5.25
2019-03-04T03:20:02.632Z,4.97
2019-03-04T03:22:51.538Z,4.75
2019-03-04T03:25:40.836Z,4.85
2019-03-04T03:28:30.493Z,4.95
2019-03-04T03:31:19.184Z,4.90
2019-03-04T03:34:08.583Z,4.22
2019-03-04T03:36:57.441Z,4.95
2019-03-04T03:39:46.637Z,4.45
2019-03-04T03:42:36.420Z,3.65
2019-03-04T03:45:25.692Z,4.42
2019-03-04T03:48:15.060Z,4.33
2019-03-04T03:51:03.942Z,4.62
2019-03-04T03:53:52.678Z,3.45
2019-03-04T03:56:41.733Z,3.70
2019-03-04T03:59:30.704Z,3.62
2019-03-04T04:02:19.621Z,3.52
2019-03-04T04:05:09.340Z,3.55
2019-03-04T04:07:58.128Z,3.40
2019-03-04T04:10:47.574Z,3.60
2019-03-04T04:13:36.441Z,3.35
2019-03-04T04:16:25.751Z,3.60
2019-03-04T04:19:16.165Z,3.05
2019-03-04T04:22:05.429Z,3.10
2019-03-04T04:24:54.843Z,3.20
2019-03-04T04:27:43.744Z,3.33
2019-03-04T04:30:37.194Z,3.90
2019-03-04T04:33:26.144Z,3.70
2019-03-04T04:36:15.702Z,2.85
2019-03-04T04:39:06.322Z,2.85
2019-03-04T04:41:55.595Z,4.33
2019-03-04T04:44:44.450Z,3.47
2019-03-04T04:47:33.711Z,3.50
2019-03-04T04:50:32.091Z,3.10
2019-03-04T04:53:21.169Z,3.30
2019-03-04T04:56:10.527Z,3.50
2019-03-04T04:58:59.617Z,3.00
2019-03-04T05:01:48.688Z,3.22
2019-03-04T05:04:38.115Z,3.20
2019-03-04T05:07:27.051Z,3.52
2019-03-04T05:10:22.505Z,3.20
2019-03-04T05:13:11.774Z,3.20
2019-03-04T05:16:00.736Z,3.20
2019-03-04T05:18:49.905Z,3.20
2019-03-04T05:21:38.915Z,3.20
2019-03-04T05:24:29.641Z,3.02
2019-03-04T05:27:19.325Z,3.40
2019-03-04T05:30:13.343Z,2.77
2019-03-04T05:33:02.903Z,3.52
2019-03-04T05:35:52.249Z,3.25
2019-03-04T05:38:41.553Z,2.98
2019-03-04T05:41:30.518Z,3.27
2019-03-04T05:44:19.677Z,3.15
2019-03-04T05:47:08.976Z,3.22
2019-03-04T05:49:58.213Z,2.85
2019-03-04T05:52:47.330Z,3.30
2019-03-04T05:55:36.342Z,2.33
2019-03-04T05:58:25.664Z,2.58
2019-03-04T06:01:27.791Z,2.85
2019-03-04T06:04:17.144Z,2.60
2019-03-04T06:07:07.436Z,3.25
2019-03-04T06:09:56.415Z,3.40
2019-03-04T06:12:45.998Z,2.90
2019-03-04T06:15:35.564Z,2.80
2019-03-04T06:18:24.443Z,2.83
2019-03-04T06:21:13.518Z,3.02
2019-03-04T06:24:02.529Z,2.20
2019-03-04T06:26:51.930Z,2.50
2019-03-04T06:29:40.981Z,2.60
2019-03-04T06:32:29.856Z,2.35
2019-03-04T06:35:19.217Z,2.62
2019-03-04T06:38:08.390Z,2.10
2019-03-04T06:40:57.983Z,2.22
2019-03-04T06:43:47.018Z,2.60
2019-03-04T06:46:36.506Z,2.10
2019-03-04T06:49:25.543Z,2.37
2019-03-04T06:52:14.831Z,2.30
2019-03-04T06:55:24.909Z,2.72
2019-03-04T06:58:14.161Z,2.55
2019-03-04T07:01:08.023Z,2.05
2019-03-04T07:04:01.598Z,2.45
2019-03-04T07:06:50.985Z,2.62
2019-03-04T07:09:39.937Z,1.95
2019-03-04T07:12:29.622Z,3.02
2019-03-04T07:15:18.679Z,2.30
2019-03-04T07:18:08.559Z,2.40
2019-03-04T07:20:58.046Z,2.50
2019-03-04T07:23:47.112Z,2.35
2019-03-04T07:26:35.740Z,2.90
2019-03-04T07:29:25.238Z,2.60
2019-03-04T07:32:13.929Z,2.77
2019-03-04T07:35:03.266Z,2.80
2019-03-04T07:38:13.630Z,2.50
2019-03-04T07:41:02.359Z,2.80
2019-03-04T07:43:51.446Z,2.40
2019-03-04T07:46:40.707Z,3.10
2019-03-04T07:49:30.201Z,2.47
2019-03-04T07:52:19.268Z,2.65
2019-03-04T07:55:09.657Z,2.80
2019-03-04T07:57:59.224Z,2.30
2019-03-04T08:00:49.119Z,3.20
2019-03-04T08:03:37.882Z,2.95
2019-03-04T08:06:27.147Z,2.90
2019-03-04T08:09:30.555Z,3.75
2019-03-04T08:12:38.540Z,2.40
2019-03-04T08:15:28.231Z,3.00
2019-03-04T08:18:16.844Z,3.50
2019-03-04T08:21:05.851Z,2.80
2019-03-04T08:23:54.686Z,3.45
2019-03-04T08:26:43.670Z,2.80
2019-03-04T08:29:32.844Z,2.33
2019-03-04T08:32:22.028Z,3.00
2019-03-04T08:35:10.866Z,2.80
2019-03-04T08:38:00.361Z,2.60
2019-03-04T08:40:49.810Z,2.55
2019-03-04T08:43:38.731Z,2.67
2019-03-04T08:46:28.142Z,2.75
2019-03-04T08:49:17.369Z,2.20
2019-03-04T08:52:06.892Z,2.10
2019-03-04T08:54:56.256Z,1.90
2019-03-04T08:57:46.761Z,1.87
2019-03-04T09:00:36.116Z,1.60
2019-03-04T09:03:25.522Z,2.10
2019-03-04T09:06:15.208Z,1.45
2019-03-04T09:09:06.703Z,1.00
2019-03-04T09:11:56.504Z,1.30
2019-03-04T09:14:45.756Z,1.05
2019-03-04T09:17:34.923Z,1.10
2019-03-04T09:20:25.227Z,1.00
2019-03-04T09:23:14.795Z,0.88
2019-03-04T09:26:08.127Z,0.80
2019-03-04T09:28:57.435Z,0.90
2019-03-04T09:31:46.971Z,0.80
2019-03-04T09:34:36.066Z,0.90
2019-03-04T09:37:25.569Z,1.05
2019-03-04T09:40:32.215Z,0.90
2019-03-04T09:43:21.176Z,0.80
2019-03-04T09:46:10.117Z,0.93
2019-03-04T09:48:59.410Z,1.10
2019-03-04T09:51:48.753Z,1.30
2019-03-04T09:54:38.396Z,0.90
2019-03-04T09:57:28.213Z,0.93
2019-03-04T10:00:41.585Z,0.87
2019-03-04T10:03:51.048Z,1.20
2019-03-04T10:06:51.252Z,1.10
2019-03-04T10:09:57.515Z,1.30
2019-03-04T10:13:02.606Z,1.20
2019-03-04T10:16:27.358Z,1.10
2019-03-04T10:19:30.017Z,1.10
2019-03-04T10:22:32.356Z,1.20
2019-03-04T10:25:54.455Z,1.02
2019-03-04T10:29:29.151Z,1.20
2019-03-04T10:32:31.671Z,1.30
2019-03-04T10:35:28.117Z,1.40
2019-03-04T10:38:23.967Z,1.42
2019-03-04T10:41:20.571Z,1.27
2019-03-04T10:44:25.598Z,1.45
2019-03-04T10:47:14.882Z,1.72
2019-03-04T10:50:06.501Z,1.83
2019-03-04T10:52:55.886Z,1.70
2019-03-04T10:55:45.431Z,1.42
2019-03-04T10:58:34.740Z,1.60
2019-03-04T11:01:30.341Z,1.25
2019-03-04T11:04:14.994Z,1.52
2019-03-04T11:07:03.973Z,1.50
2019-03-04T11:09:52.481Z,1.27
2019-03-04T11:12:42.024Z,1.72
2019-03-04T11:15:31.315Z,1.60
2019-03-04T11:18:20.643Z,1.43
2019-03-04T11:21:10.024Z,1.30
2019-03-04T11:23:58.768Z,1.25
2019-03-04T11:26:48.290Z,1.30
2019-03-04T11:29:37.410Z,1.92
2019-03-04T11:32:26.547Z,1.60
2019-03-04T11:35:15.948Z,1.60
2019-03-04T11:38:07.160Z,1.42
2019-03-04T11:40:56.174Z,1.70
2019-03-04T11:43:45.201Z,1.65
2019-03-04T11:46:34.156Z,1.60
2019-03-04T11:49:23.124Z,1.55
2019-03-04T11:52:12.302Z,1.50
2019-03-04T11:55:00.934Z,1.40
2019-03-04T11:57:49.879Z,1.17
2019-03-04T12:00:46.875Z,1.35
2019-03-04T12:03:35.959Z,1.27
2019-03-04T12:06:25.587Z,1.10
2019-03-04T12:09:15.559Z,1.02
2019-03-04T12:12:04.430Z,1.47
2019-03-04T12:14:53.289Z,1.20
2019-03-04T12:17:42.865Z,1.60
2019-03-04T12:20:31.745Z,1.90
2019-03-04T12:23:21.217Z,1.47
2019-03-04T12:26:10.133Z,1.55
2019-03-04T12:28:59.085Z,1.90
2019-03-04T12:31:56.187Z,1.10
2019-03-04T12:34:44.941Z,1.90
2019-03-04T12:37:33.910Z,1.50
2019-03-04T12:40:24.494Z,1.40
2019-03-04T12:43:14.152Z,1.10
2019-03-04T12:46:03.407Z,1.30
2019-03-04T12:48:52.722Z,1.20
2019-03-04T12:51:42.205Z,1.40
2019-03-04T12:54:31.459Z,1.00
2019-03-04T12:57:20.550Z,1.40
2019-03-04T13:00:29.664Z,1.35
2019-03-04T13:03:21.788Z,1.00
2019-03-04T13:06:11.369Z,1.40
2019-03-04T13:09:00.643Z,1.60
2019-03-04T13:11:49.487Z,1.37
2019-03-04T13:14:38.580Z,1.20
2019-03-04T13:17:27.583Z,1.22
2019-03-04T13:20:22.426Z,1.10
2019-03-04T13:23:11.959Z,1.10
2019-03-04T13:26:01.334Z,1.20
2019-03-04T13:28:50.191Z,1.00
2019-03-04T13:31:39.403Z,1.20
2019-03-04T13:34:28.465Z,1.25
2019-03-04T13:37:17.367Z,1.45
2019-03-04T13:40:11.309Z,1.40
2019-03-04T13:43:01.063Z,1.50
2019-03-04T13:45:50.972Z,1.57
2019-03-04T13:48:40.078Z,1.70
2019-03-04T13:51:29.511Z,2.60
2019-03-04T13:54:18.322Z,1.50
2019-03-04T13:57:07.536Z,2.37
2019-03-04T13:59:56.337Z,1.72
2019-03-04T14:02:46.183Z,1.40
2019-03-04T14:05:35.726Z,1.67
2019-03-04T14:08:26.456Z,1.75
2019-03-04T14:11:15.728Z,1.72
2019-03-04T14:14:04.798Z,1.62
2019-03-04T14:16:54.066Z,1.50
2019-03-04T14:19:43.744Z,1.40
2019-03-04T14:22:40.166Z,1.40
2019-03-04T14:25:23.611Z,1.32
2019-03-04T14:28:13.004Z,1.40
2019-03-04T14:31:02.633Z,1.62
2019-03-04T14:33:52.036Z,1.65
2019-03-04T14:36:41.104Z,1.72
2019-03-04T14:39:30.266Z,2.00
2019-03-04T14:42:19.415Z,1.70
2019-03-04T14:45:13.617Z,2.20
2019-03-04T14:48:02.922Z,1.70
2019-03-04T14:50:52.198Z,1.82
2019-03-04T14:53:41.319Z,2.00
2019-03-04T14:56:30.587Z,1.80
2019-03-04T14:59:20.176Z,2.02
2019-03-04T15:02:09.476Z,1.92
2019-03-04T15:04:59.331Z,1.87
2019-03-04T15:07:48.681Z,1.98
2019-03-04T15:10:37.462Z,2.12
2019-03-04T15:13:26.655Z,1.70
2019-03-04T15:16:15.889Z,1.72
2019-03-04T15:19:05.571Z,1.82
2019-03-04T15:21:55.011Z,1.40
2019-03-04T15:24:43.956Z,1.62
2019-03-04T15:27:33.278Z,2.15
2019-03-04T15:30:22.837Z,1.75
2019-03-04T15:33:18.000Z,2.05
2019-03-04T15:36:03.135Z,2.80
2019-03-04T15:38:51.664Z,1.95
2019-03-04T15:41:41.256Z,1.85
2019-03-04T15:44:30.064Z,1.80
2019-03-04T15:47:19.806Z,2.00
2019-03-04T15:50:13.568Z,1.60
2019-03-04T15:53:03.265Z,2.05
2019-03-04T15:55:53.159Z,2.50
2019-03-04T15:58:42.612Z,2.00
2019-03-04T16:01:32.021Z,1.85
2019-03-04T16:04:21.092Z,1.75
2019-03-04T16:07:11.647Z,2.08
2019-03-04T16:10:00.411Z,2.55
2019-03-04T16:12:49.585Z,2.35
2019-03-04T16:15:46.299Z,2.22
2019-03-04T16:18:35.482Z,2.42
2019-03-04T16:21:24.335Z,2.10
2019-03-04T16:24:13.917Z,2.62
2019-03-04T16:27:11.644Z,2.45
2019-03-04T16:30:01.272Z,2.30
2019-03-04T16:32:51.007Z,3.15
2019-03-04T16:35:40.420Z,2.42
2019-03-04T16:38:30.275Z,2.52
2019-03-04T16:41:19.232Z,2.53
2019-03-04T16:44:08.531Z,2.40
2019-03-04T16:46:57.716Z,2.92
2019-03-04T16:49:46.975Z,3.27
2019-03-04T16:52:35.736Z,2.65
2019-03-04T16:55:25.113Z,2.98
2019-03-04T16:58:13.839Z,2.85
2019-03-04T17:01:03.490Z,3.40
2019-03-04T17:03:52.803Z,2.45
2019-03-04T17:06:41.920Z,2.98
2019-03-04T17:09:31.556Z,2.40
2019-03-04T17:12:20.869Z,3.17
2019-03-04T17:15:19.857Z,4.10
2019-03-04T17:18:09.036Z,3.65
2019-03-04T17:20:58.500Z,3.40
2019-03-04T17:23:47.777Z,2.75
2019-03-04T17:26:37.299Z,2.93
2019-03-04T17:29:26.036Z,5.07
2019-03-04T17:32:15.851Z,3.60
2019-03-04T17:35:08.189Z,3.20
2019-03-04T17:37:57.775Z,3.45
2019-03-04T17:40:47.507Z,3.42
2019-03-04T17:43:36.604Z,2.62
2019-03-04T17:46:25.990Z,3.08
2019-03-04T17:49:15.254Z,3.80
2019-03-04T17:52:04.409Z,2.90
2019-03-04T17:54:53.062Z,2.70
2019-03-04T17:57:42.130Z,3.05
2019-03-04T18:00:31.998Z,3.22
2019-03-04T18:03:21.281Z,3.02
2019-03-04T18:06:10.963Z,3.40
2019-03-04T18:08:59.705Z,2.90
2019-03-04T18:11:48.577Z,3.77
2019-03-04T18:14:37.372Z,4.12
2019-03-04T18:17:26.997Z,3.85
2019-03-04T18:20:16.739Z,4.70
2019-03-04T18:23:06.561Z,3.50
2019-03-04T18:26:18.480Z,4.35
2019-03-04T18:29:29.821Z,3.45
2019-03-04T18:32:45.406Z,4.05
2019-03-04T18:35:50.513Z,4.27
2019-03-04T18:39:05.483Z,3.75
2019-03-04T18:42:18.768Z,2.77
2019-03-04T18:45:45.324Z,3.20
2019-03-04T18:48:56.426Z,3.25
2019-03-04T18:51:45.703Z,3.40
2019-03-04T18:54:36.378Z,4.70
2019-03-04T18:57:25.946Z,3.00
2019-03-04T19:00:26.958Z,4.10
2019-03-04T19:03:15.738Z,3.30
2019-03-04T19:06:05.250Z,3.85
2019-03-04T19:08:54.722Z,3.12
2019-03-04T19:11:43.830Z,3.30
2019-03-04T19:14:33.159Z,5.28
2019-03-04T19:17:21.969Z,4.80
2019-03-04T19:20:21.740Z,3.50
2019-03-04T19:23:10.441Z,3.80
2019-03-04T19:26:00.167Z,3.20
2019-03-04T19:28:49.026Z,3.17
2019-03-04T19:31:38.004Z,2.90
2019-03-04T19:34:27.054Z,2.93
2019-03-04T19:37:16.139Z,3.70
2019-03-04T19:40:08.266Z,3.92
2019-03-04T19:42:57.303Z,3.55
2019-03-04T19:45:46.800Z,3.08
2019-03-04T19:48:35.875Z,3.22
2019-03-04T19:51:25.136Z,3.65
2019-03-04T19:54:15.318Z,3.30
2019-03-04T19:57:04.291Z,4.13
2019-03-04T19:59:53.445Z,4.75
2019-03-04T20:02:41.926Z,3.47
2019-03-04T20:05:33.530Z,3.40
2019-03-04T20:08:23.153Z,2.47
2019-03-04T20:11:12.376Z,3.12
2019-03-04T20:14:01.744Z,2.72
2019-03-04T20:16:50.654Z,3.47
2019-03-04T20:19:40.587Z,2.42
2019-03-04T20:22:29.120Z,4.10
2019-03-04T20:25:19.375Z,3.83
2019-03-04T20:28:08.541Z,3.45
2019-03-04T20:30:58.077Z,3.25
2019-03-04T20:33:47.302Z,3.02
2019-03-04T20:36:36.917Z,3.05
2019-03-04T20:39:26.187Z,3.65
2019-03-04T20:42:15.620Z,6.35
2019-03-04T20:45:11.235Z,3.15
2019-03-04T20:48:00.020Z,3.70
2019-03-04T20:50:49.716Z,4.47
2019-03-04T20:53:38.832Z,2.85
2019-03-04T20:56:28.005Z,3.20
2019-03-04T20:59:17.128Z,3.20
2019-03-04T21:02:06.146Z,4.15
2019-03-04T21:04:54.949Z,3.70
2019-03-04T21:07:44.459Z,2.92
2019-03-04T21:10:33.789Z,3.58
2019-03-04T21:13:23.750Z,2.47
2019-03-04T21:16:12.628Z,3.30
2019-03-04T21:19:02.315Z,3.62
2019-03-04T21:21:52.156Z,4.03
2019-03-04T21:24:41.353Z,3.12
2019-03-04T21:27:32.265Z,2.83
2019-03-04T21:30:37.702Z,3.40
2019-03-04T21:33:47.493Z,3.87
2019-03-04T21:36:49.744Z,2.83
2019-03-04T21:39:48.864Z,3.13
2019-03-04T21:43:03.912Z,3.62
2019-03-04T21:46:38.751Z,3.65
2019-03-04T21:49:30.562Z,3.87
2019-03-04T21:52:36.553Z,3.23
2019-03-04T21:55:54.633Z,3.72
2019-03-04T21:58:43.663Z,2.60
2019-03-04T22:02:01.566Z,2.87
2019-03-04T22:04:50.125Z,3.17
2019-03-04T22:07:40.233Z,6.05
2019-03-04T22:10:29.346Z,2.80
2019-03-04T22:13:18.891Z,3.83
2019-03-04T22:16:07.797Z,4.07
2019-03-04T22:18:57.224Z,2.55
2019-03-04T22:21:46.045Z,2.70
2019-03-04T22:24:35.546Z,3.45
2019-03-04T22:27:25.021Z,2.90
2019-03-04T22:30:19.433Z,4.47
2019-03-04T22:33:09.191Z,3.67
2019-03-04T22:35:58.462Z,3.90
2019-03-04T22:38:47.927Z,3.98
2019-03-04T22:41:36.512Z,6.05
2019-03-04T22:44:25.764Z,4.60
2019-03-04T22:47:14.617Z,4.90
2019-03-04T22:50:04.003Z,4.25
2019-03-04T22:52:53.249Z,5.10
2019-03-04T22:55:42.290Z,4.77
2019-03-04T22:58:31.437Z,4.90
2019-03-04T23:01:34.277Z,4.67
2019-03-04T23:04:23.643Z,5.13
2019-03-04T23:07:12.723Z,4.95
2019-03-04T23:10:02.286Z,6.55
2019-03-04T23:12:53.375Z,5.65
2019-03-04T23:15:44.517Z,5.33
2019-03-04T23:18:33.448Z,4.90
2019-03-04T23:21:22.849Z,4.62
2019-03-04T23:24:12.390Z,5.28
2019-03-04T23:27:01.493Z,4.40
2019-03-04T23:29:50.792Z,4.30
2019-03-04T23:32:40.132Z,6.00
2019-03-04T23:35:29.250Z,5.20
2019-03-04T23:38:18.777Z,6.33
2019-03-04T23:41:07.843Z,6.72
2019-03-04T23:43:56.369Z,5.30
2019-03-04T23:46:45.832Z,5.50
2019-03-04T23:49:34.319Z,6.87
2019-03-04T23:52:23.479Z,5.47
2019-03-04T23:55:13.114Z,5.30
2019-03-04T23:58:02.732Z,5.15
